sensor_id;sensor_type;location;lat;lon;timestamp;temperature;humidity
78345;DHT22;67620;51.134;6.548;2024-01-11T00:01:10;-7.90;90.90
78345;DHT22;67620;51.134;6.548;2024-01-11T00:03:35;-7.80;91.00
78345;DHT22;67620;51.134;6.548;2024-01-11T00:06:01;-7.80;91.20
78345;DHT22;67620;51.134;6.548;2024-01-11T00:08:26;-7.80;91.30
78345;DHT22;67620;51.134;6.548;2024-01-11T00:10:51;-7.80;91.40
78345;DHT22;67620;51.134;6.548;2024-01-11T00:13:17;-7.80;91.60
78345;DHT22;67620;51.134;6.548;2024-01-11T00:15:42;-7.80;91.40
78345;DHT22;67620;51.134;6.548;2024-01-11T00:18:08;-7.80;91.30
78345;DHT22;67620;51.134;6.548;2024-01-11T00:20:33;-7.80;91.40
78345;DHT22;67620;51.134;6.548;2024-01-11T00:23:00;-7.80;91.40
78345;DHT22;67620;51.134;6.548;2024-01-11T00:25:25;-7.70;91.90
78345;DHT22;67620;51.134;6.548;2024-01-11T00:27:51;-7.80;92.30
78345;DHT22;67620;51.134;6.548;2024-01-11T00:30:16;-7.70;92.60
78345;DHT22;67620;51.134;6.548;2024-01-11T00:32:42;-7.60;93.00
78345;DHT22;67620;51.134;6.548;2024-01-11T00:35:07;-7.70;92.80
78345;DHT22;67620;51.134;6.548;2024-01-11T00:37:32;-7.80;92.60
78345;DHT22;67620;51.134;6.548;2024-01-11T00:39:58;-7.80;92.70
78345;DHT22;67620;51.134;6.548;2024-01-11T00:42:23;-7.90;92.80
78345;DHT22;67620;51.134;6.548;2024-01-11T00:44:49;-7.80;92.90
78345;DHT22;67620;51.134;6.548;2024-01-11T00:47:14;-7.80;92.80
78345;DHT22;67620;51.134;6.548;2024-01-11T00:49:40;-7.80;92.80
78345;DHT22;67620;51.134;6.548;2024-01-11T00:52:05;-7.80;92.70
78345;DHT22;67620;51.134;6.548;2024-01-11T00:54:31;-7.80;92.40
78345;DHT22;67620;51.134;6.548;2024-01-11T00:56:56;-7.80;92.40
78345;DHT22;67620;51.134;6.548;2024-01-11T00:59:21;-7.90;92.30
78345;DHT22;67620;51.134;6.548;2024-01-11T01:01:50;-7.90;92.50
78345;DHT22;67620;51.134;6.548;2024-01-11T01:04:16;-7.90;92.60
78345;DHT22;67620;51.134;6.548;2024-01-11T01:06:41;-7.90;92.60
78345;DHT22;67620;51.134;6.548;2024-01-11T01:09:07;-7.90;92.50
78345;DHT22;67620;51.134;6.548;2024-01-11T01:11:33;-7.90;92.40
78345;DHT22;67620;51.134;6.548;2024-01-11T01:13:58;-7.90;92.30
78345;DHT22;67620;51.134;6.548;2024-01-11T01:16:24;-7.90;92.00
78345;DHT22;67620;51.134;6.548;2024-01-11T01:18:49;-7.90;92.00
78345;DHT22;67620;51.134;6.548;2024-01-11T01:21:14;-7.90;92.00
78345;DHT22;67620;51.134;6.548;2024-01-11T01:23:40;-8.00;92.10
78345;DHT22;67620;51.134;6.548;2024-01-11T01:26:06;-8.00;92.10
78345;DHT22;67620;51.134;6.548;2024-01-11T01:28:31;-7.90;92.40
78345;DHT22;67620;51.134;6.548;2024-01-11T01:30:57;-8.00;92.90
78345;DHT22;67620;51.134;6.548;2024-01-11T01:33:22;-8.00;93.20
78345;DHT22;67620;51.134;6.548;2024-01-11T01:35:48;-8.00;93.20
78345;DHT22;67620;51.134;6.548;2024-01-11T01:38:13;-8.10;93.40
78345;DHT22;67620;51.134;6.548;2024-01-11T01:40:39;-8.10;93.40
78345;DHT22;67620;51.134;6.548;2024-01-11T01:43:06;-8.10;93.40
78345;DHT22;67620;51.134;6.548;2024-01-11T01:45:32;-8.10;93.30
78345;DHT22;67620;51.134;6.548;2024-01-11T01:47:57;-8.10;93.20
78345;DHT22;67620;51.134;6.548;2024-01-11T01:50:23;-8.10;93.40
78345;DHT22;67620;51.134;6.548;2024-01-11T01:52:48;-8.10;93.70
78345;DHT22;67620;51.134;6.548;2024-01-11T01:55:14;-8.10;94.00
78345;DHT22;67620;51.134;6.548;2024-01-11T01:57:40;-8.10;94.20
78345;DHT22;67620;51.134;6.548;2024-01-11T02:00:08;-8.20;94.30
78345;DHT22;67620;51.134;6.548;2024-01-11T02:02:35;-8.10;94.50
78345;DHT22;67620;51.134;6.548;2024-01-11T02:05:00;-8.10;94.50
78345;DHT22;67620;51.134;6.548;2024-01-11T02:07:26;-8.10;94.40
78345;DHT22;67620;51.134;6.548;2024-01-11T02:09:52;-8.10;94.30
78345;DHT22;67620;51.134;6.548;2024-01-11T02:12:17;-8.20;94.30
78345;DHT22;67620;51.134;6.548;2024-01-11T02:14:43;-8.30;94.20
78345;DHT22;67620;51.134;6.548;2024-01-11T02:17:09;-8.30;94.20
78345;DHT22;67620;51.134;6.548;2024-01-11T02:19:34;-8.30;94.10
78345;DHT22;67620;51.134;6.548;2024-01-11T02:22:00;-8.20;94.00
78345;DHT22;67620;51.134;6.548;2024-01-11T02:24:27;-8.30;93.80
78345;DHT22;67620;51.134;6.548;2024-01-11T02:26:59;-8.30;93.60
78345;DHT22;67620;51.134;6.548;2024-01-11T02:29:25;-8.30;93.60
78345;DHT22;67620;51.134;6.548;2024-01-11T02:31:50;-8.30;93.50
78345;DHT22;67620;51.134;6.548;2024-01-11T02:34:16;-8.30;93.50
78345;DHT22;67620;51.134;6.548;2024-01-11T02:36:42;-8.40;93.60
78345;DHT22;67620;51.134;6.548;2024-01-11T02:39:07;-8.40;93.90
78345;DHT22;67620;51.134;6.548;2024-01-11T02:41:33;-8.30;94.20
78345;DHT22;67620;51.134;6.548;2024-01-11T02:43:59;-8.30;94.40
78345;DHT22;67620;51.134;6.548;2024-01-11T02:46:25;-8.20;94.50
78345;DHT22;67620;51.134;6.548;2024-01-11T02:48:51;-8.40;94.50
78345;DHT22;67620;51.134;6.548;2024-01-11T02:51:17;-8.40;94.40
78345;DHT22;67620;51.134;6.548;2024-01-11T02:53:43;-8.40;94.40
78345;DHT22;67620;51.134;6.548;2024-01-11T02:56:08;-8.40;94.30
78345;DHT22;67620;51.134;6.548;2024-01-11T02:58:34;-8.40;94.30
78345;DHT22;67620;51.134;6.548;2024-01-11T03:00:59;-8.50;94.20
78345;DHT22;67620;51.134;6.548;2024-01-11T03:03:25;-8.50;94.10
78345;DHT22;67620;51.134;6.548;2024-01-11T03:05:50;-8.50;94.10
78345;DHT22;67620;51.134;6.548;2024-01-11T03:08:15;-8.50;94.10
78345;DHT22;67620;51.134;6.548;2024-01-11T03:10:41;-8.50;94.00
78345;DHT22;67620;51.134;6.548;2024-01-11T03:13:07;-8.50;94.00
78345;DHT22;67620;51.134;6.548;2024-01-11T03:15:32;-8.50;94.00
78345;DHT22;67620;51.134;6.548;2024-01-11T03:17:58;-8.50;94.10
78345;DHT22;67620;51.134;6.548;2024-01-11T03:20:23;-8.60;94.00
78345;DHT22;67620;51.134;6.548;2024-01-11T03:22:52;-8.60;94.30
78345;DHT22;67620;51.134;6.548;2024-01-11T03:25:18;-8.60;94.40
78345;DHT22;67620;51.134;6.548;2024-01-11T03:27:43;-8.60;94.40
78345;DHT22;67620;51.134;6.548;2024-01-11T03:30:09;-8.60;94.40
78345;DHT22;67620;51.134;6.548;2024-01-11T03:32:35;-8.60;94.50
78345;DHT22;67620;51.134;6.548;2024-01-11T03:35:00;-8.60;94.50
78345;DHT22;67620;51.134;6.548;2024-01-11T03:37:26;-8.60;94.60
78345;DHT22;67620;51.134;6.548;2024-01-11T03:39:51;-8.60;94.60
78345;DHT22;67620;51.134;6.548;2024-01-11T03:42:16;-8.50;94.60
78345;DHT22;67620;51.134;6.548;2024-01-11T03:44:42;-8.60;94.60
78345;DHT22;67620;51.134;6.548;2024-01-11T03:47:08;-8.60;94.70
78345;DHT22;67620;51.134;6.548;2024-01-11T03:49:33;-8.60;94.60
78345;DHT22;67620;51.134;6.548;2024-01-11T03:51:58;-8.70;94.60
78345;DHT22;67620;51.134;6.548;2024-01-11T03:54:24;-8.70;94.60
78345;DHT22;67620;51.134;6.548;2024-01-11T03:56:49;-8.70;94.40
78345;DHT22;67620;51.134;6.548;2024-01-11T03:59:15;-8.70;94.40
78345;DHT22;67620;51.134;6.548;2024-01-11T04:01:40;-8.70;94.40
78345;DHT22;67620;51.134;6.548;2024-01-11T04:04:06;-8.70;94.30
78345;DHT22;67620;51.134;6.548;2024-01-11T04:06:31;-8.80;94.30
78345;DHT22;67620;51.134;6.548;2024-01-11T04:08:57;-8.70;94.20
78345;DHT22;67620;51.134;6.548;2024-01-11T04:11:22;-8.80;94.20
78345;DHT22;67620;51.134;6.548;2024-01-11T04:13:48;-8.80;94.20
78345;DHT22;67620;51.134;6.548;2024-01-11T04:16:14;-8.90;94.30
78345;DHT22;67620;51.134;6.548;2024-01-11T04:18:39;-8.80;94.30
78345;DHT22;67620;51.134;6.548;2024-01-11T04:21:05;-8.80;94.30
78345;DHT22;67620;51.134;6.548;2024-01-11T04:23:30;-8.80;94.30
78345;DHT22;67620;51.134;6.548;2024-01-11T04:25:55;-8.80;94.20
78345;DHT22;67620;51.134;6.548;2024-01-11T04:28:21;-8.80;94.20
78345;DHT22;67620;51.134;6.548;2024-01-11T04:30:46;-8.80;94.10
78345;DHT22;67620;51.134;6.548;2024-01-11T04:33:12;-8.90;94.10
78345;DHT22;67620;51.134;6.548;2024-01-11T04:35:37;-8.90;94.00
78345;DHT22;67620;51.134;6.548;2024-01-11T04:38:03;-8.90;94.00
78345;DHT22;67620;51.134;6.548;2024-01-11T04:40:28;-8.90;93.90
78345;DHT22;67620;51.134;6.548;2024-01-11T04:42:54;-8.90;93.80
78345;DHT22;67620;51.134;6.548;2024-01-11T04:45:19;-8.90;93.70
78345;DHT22;67620;51.134;6.548;2024-01-11T04:47:44;-9.00;93.70
78345;DHT22;67620;51.134;6.548;2024-01-11T04:50:10;-9.00;93.90
78345;DHT22;67620;51.134;6.548;2024-01-11T04:52:36;-8.80;94.30
78345;DHT22;67620;51.134;6.548;2024-01-11T04:55:01;-8.70;94.90
78345;DHT22;67620;51.134;6.548;2024-01-11T04:57:27;-8.40;95.30
78345;DHT22;67620;51.134;6.548;2024-01-11T04:59:52;-8.20;95.90
78345;DHT22;67620;51.134;6.548;2024-01-11T05:02:20;-8.10;95.90
78345;DHT22;67620;51.134;6.548;2024-01-11T05:04:45;-8.20;95.50
78345;DHT22;67620;51.134;6.548;2024-01-11T05:07:11;-8.30;95.30
78345;DHT22;67620;51.134;6.548;2024-01-11T05:09:36;-8.40;95.40
78345;DHT22;67620;51.134;6.548;2024-01-11T05:12:02;-8.40;95.70
78345;DHT22;67620;51.134;6.548;2024-01-11T05:14:27;-8.40;95.70
78345;DHT22;67620;51.134;6.548;2024-01-11T05:16:54;-8.40;95.60
78345;DHT22;67620;51.134;6.548;2024-01-11T05:19:20;-8.30;95.70
78345;DHT22;67620;51.134;6.548;2024-01-11T05:21:45;-8.30;95.80
78345;DHT22;67620;51.134;6.548;2024-01-11T05:24:11;-8.10;96.00
78345;DHT22;67620;51.134;6.548;2024-01-11T05:26:36;-8.30;96.00
78345;DHT22;67620;51.134;6.548;2024-01-11T05:29:01;-8.40;95.80
78345;DHT22;67620;51.134;6.548;2024-01-11T05:31:29;-8.60;95.70
78345;DHT22;67620;51.134;6.548;2024-01-11T05:33:55;-8.60;95.50
78345;DHT22;67620;51.134;6.548;2024-01-11T05:36:20;-8.70;95.50
78345;DHT22;67620;51.134;6.548;2024-01-11T05:38:46;-8.70;95.70
78345;DHT22;67620;51.134;6.548;2024-01-11T05:41:12;-8.70;95.70
78345;DHT22;67620;51.134;6.548;2024-01-11T05:43:37;-8.60;96.00
78345;DHT22;67620;51.134;6.548;2024-01-11T05:46:04;-8.50;96.00
78345;DHT22;67620;51.134;6.548;2024-01-11T05:48:30;-8.40;96.20
78345;DHT22;67620;51.134;6.548;2024-01-11T05:50:55;-8.40;96.10
78345;DHT22;67620;51.134;6.548;2024-01-11T05:53:20;-8.50;96.10
78345;DHT22;67620;51.134;6.548;2024-01-11T05:55:46;-8.60;96.10
78345;DHT22;67620;51.134;6.548;2024-01-11T05:58:12;-8.60;96.00
78345;DHT22;67620;51.134;6.548;2024-01-11T06:00:38;-8.60;95.80
78345;DHT22;67620;51.134;6.548;2024-01-11T06:03:03;-8.70;95.80
78345;DHT22;67620;51.134;6.548;2024-01-11T06:05:29;-8.80;95.80
78345;DHT22;67620;51.134;6.548;2024-01-11T06:07:55;-8.90;95.80
78345;DHT22;67620;51.134;6.548;2024-01-11T06:10:20;-8.80;95.90
78345;DHT22;67620;51.134;6.548;2024-01-11T06:12:46;-8.80;96.00
78345;DHT22;67620;51.134;6.548;2024-01-11T06:15:11;-8.80;96.30
78345;DHT22;67620;51.134;6.548;2024-01-11T06:17:37;-8.70;96.20
78345;DHT22;67620;51.134;6.548;2024-01-11T06:20:02;-8.70;96.50
78345;DHT22;67620;51.134;6.548;2024-01-11T06:22:29;-8.60;96.70
78345;DHT22;67620;51.134;6.548;2024-01-11T06:24:54;-8.40;97.10
78345;DHT22;67620;51.134;6.548;2024-01-11T06:27:19;-8.20;96.90
78345;DHT22;67620;51.134;6.548;2024-01-11T06:29:45;-8.30;96.70
78345;DHT22;67620;51.134;6.548;2024-01-11T06:32:11;-8.30;96.40
78345;DHT22;67620;51.134;6.548;2024-01-11T06:34:36;-8.40;96.10
78345;DHT22;67620;51.134;6.548;2024-01-11T06:37:02;-8.30;96.50
78345;DHT22;67620;51.134;6.548;2024-01-11T06:39:28;-8.10;96.80
78345;DHT22;67620;51.134;6.548;2024-01-11T06:41:55;-8.20;96.20
78345;DHT22;67620;51.134;6.548;2024-01-11T06:44:20;-8.10;95.90
78345;DHT22;67620;51.134;6.548;2024-01-11T06:46:45;-8.30;95.50
78345;DHT22;67620;51.134;6.548;2024-01-11T06:49:11;-8.20;95.30
78345;DHT22;67620;51.134;6.548;2024-01-11T06:51:36;-8.40;95.10
78345;DHT22;67620;51.134;6.548;2024-01-11T06:54:02;-8.40;95.10
78345;DHT22;67620;51.134;6.548;2024-01-11T06:56:27;-8.50;95.40
78345;DHT22;67620;51.134;6.548;2024-01-11T06:58:54;-8.40;95.50
78345;DHT22;67620;51.134;6.548;2024-01-11T07:01:19;-8.50;95.20
78345;DHT22;67620;51.134;6.548;2024-01-11T07:03:45;-8.70;94.90
78345;DHT22;67620;51.134;6.548;2024-01-11T07:06:10;-8.70;95.00
78345;DHT22;67620;51.134;6.548;2024-01-11T07:08:35;-8.80;94.80
78345;DHT22;67620;51.134;6.548;2024-01-11T07:11:01;-8.90;94.60
78345;DHT22;67620;51.134;6.548;2024-01-11T07:13:28;-8.90;94.40
78345;DHT22;67620;51.134;6.548;2024-01-11T07:15:53;-9.00;94.30
78345;DHT22;67620;51.134;6.548;2024-01-11T07:18:21;-9.00;94.40
78345;DHT22;67620;51.134;6.548;2024-01-11T07:20:46;-8.90;94.20
78345;DHT22;67620;51.134;6.548;2024-01-11T07:23:13;-8.90;94.10
78345;DHT22;67620;51.134;6.548;2024-01-11T07:25:39;-8.80;94.50
78345;DHT22;67620;51.134;6.548;2024-01-11T07:28:04;-8.80;94.10
78345;DHT22;67620;51.134;6.548;2024-01-11T07:30:30;-8.80;93.80
78345;DHT22;67620;51.134;6.548;2024-01-11T07:32:55;-8.80;93.60
78345;DHT22;67620;51.134;6.548;2024-01-11T07:35:21;-8.90;93.50
78345;DHT22;67620;51.134;6.548;2024-01-11T07:37:46;-8.90;93.50
78345;DHT22;67620;51.134;6.548;2024-01-11T07:40:12;-8.70;93.70
78345;DHT22;67620;51.134;6.548;2024-01-11T07:42:39;-8.80;93.40
78345;DHT22;67620;51.134;6.548;2024-01-11T07:45:05;-8.70;93.50
78345;DHT22;67620;51.134;6.548;2024-01-11T07:47:30;-8.60;93.40
78345;DHT22;67620;51.134;6.548;2024-01-11T07:49:56;-8.40;94.10
78345;DHT22;67620;51.134;6.548;2024-01-11T07:52:21;-8.30;94.00
78345;DHT22;67620;51.134;6.548;2024-01-11T07:54:47;-8.20;93.60
78345;DHT22;67620;51.134;6.548;2024-01-11T07:57:12;-8.20;93.60
78345;DHT22;67620;51.134;6.548;2024-01-11T07:59:38;-7.90;93.50
78345;DHT22;67620;51.134;6.548;2024-01-11T08:02:04;-7.80;93.40
78345;DHT22;67620;51.134;6.548;2024-01-11T08:04:31;-7.80;93.20
78345;DHT22;67620;51.134;6.548;2024-01-11T08:06:56;-7.80;92.60
78345;DHT22;67620;51.134;6.548;2024-01-11T08:09:27;-7.90;92.60
78345;DHT22;67620;51.134;6.548;2024-01-11T08:11:53;-7.90;92.10
78345;DHT22;67620;51.134;6.548;2024-01-11T08:14:22;-7.90;92.60
78345;DHT22;67620;51.134;6.548;2024-01-11T08:16:47;-7.80;92.40
78345;DHT22;67620;51.134;6.548;2024-01-11T08:19:13;-7.70;92.80
78345;DHT22;67620;51.134;6.548;2024-01-11T08:21:42;-7.60;92.70
78345;DHT22;67620;51.134;6.548;2024-01-11T08:24:07;-7.60;92.10
78345;DHT22;67620;51.134;6.548;2024-01-11T08:26:33;-7.60;92.10
78345;DHT22;67620;51.134;6.548;2024-01-11T08:28:58;-7.60;92.00
78345;DHT22;67620;51.134;6.548;2024-01-11T08:31:24;-7.60;92.00
78345;DHT22;67620;51.134;6.548;2024-01-11T08:33:49;-7.60;92.50
78345;DHT22;67620;51.134;6.548;2024-01-11T08:36:15;-7.60;92.40
78345;DHT22;67620;51.134;6.548;2024-01-11T08:38:41;-7.40;92.90
78345;DHT22;67620;51.134;6.548;2024-01-11T08:41:06;-7.20;92.50
78345;DHT22;67620;51.134;6.548;2024-01-11T08:43:32;-7.10;92.40
78345;DHT22;67620;51.134;6.548;2024-01-11T08:45:58;-7.00;91.90
78345;DHT22;67620;51.134;6.548;2024-01-11T08:48:23;-7.00;92.00
78345;DHT22;67620;51.134;6.548;2024-01-11T08:50:49;-6.80;91.70
78345;DHT22;67620;51.134;6.548;2024-01-11T08:53:14;-6.70;91.50
78345;DHT22;67620;51.134;6.548;2024-01-11T08:55:41;-6.60;91.50
78345;DHT22;67620;51.134;6.548;2024-01-11T08:58:06;-6.50;91.10
78345;DHT22;67620;51.134;6.548;2024-01-11T09:00:32;-6.40;91.00
78345;DHT22;67620;51.134;6.548;2024-01-11T09:02:57;-6.30;90.80
78345;DHT22;67620;51.134;6.548;2024-01-11T09:05:23;-6.20;90.70
78345;DHT22;67620;51.134;6.548;2024-01-11T09:07:48;-6.10;90.40
78345;DHT22;67620;51.134;6.548;2024-01-11T09:10:14;-5.90;89.90
78345;DHT22;67620;51.134;6.548;2024-01-11T09:12:39;-5.90;89.70
78345;DHT22;67620;51.134;6.548;2024-01-11T09:15:05;-5.90;89.20
78345;DHT22;67620;51.134;6.548;2024-01-11T09:17:30;-5.80;88.70
78345;DHT22;67620;51.134;6.548;2024-01-11T09:19:56;-5.80;88.50
78345;DHT22;67620;51.134;6.548;2024-01-11T09:22:21;-5.60;88.90
78345;DHT22;67620;51.134;6.548;2024-01-11T09:24:47;-5.50;88.60
78345;DHT22;67620;51.134;6.548;2024-01-11T09:27:12;-5.40;88.40
78345;DHT22;67620;51.134;6.548;2024-01-11T09:29:44;-5.30;87.60
78345;DHT22;67620;51.134;6.548;2024-01-11T09:32:10;-5.20;87.60
78345;DHT22;67620;51.134;6.548;2024-01-11T09:34:35;-5.00;85.70
78345;DHT22;67620;51.134;6.548;2024-01-11T09:37:00;-4.90;85.10
78345;DHT22;67620;51.134;6.548;2024-01-11T09:39:26;-4.90;85.40
78345;DHT22;67620;51.134;6.548;2024-01-11T09:41:58;-4.90;85.00
78345;DHT22;67620;51.134;6.548;2024-01-11T09:44:25;-4.90;85.00
78345;DHT22;67620;51.134;6.548;2024-01-11T09:46:50;-4.80;84.60
78345;DHT22;67620;51.134;6.548;2024-01-11T09:49:16;-4.70;84.50
78345;DHT22;67620;51.134;6.548;2024-01-11T09:51:42;-4.60;84.10
78345;DHT22;67620;51.134;6.548;2024-01-11T09:54:08;-4.40;83.50
78345;DHT22;67620;51.134;6.548;2024-01-11T09:56:35;-4.40;83.00
78345;DHT22;67620;51.134;6.548;2024-01-11T09:59:01;-4.30;82.80
78345;DHT22;67620;51.134;6.548;2024-01-11T10:01:30;-4.20;83.00
78345;DHT22;67620;51.134;6.548;2024-01-11T10:03:55;-4.10;82.60
78345;DHT22;67620;51.134;6.548;2024-01-11T10:06:21;-4.10;82.60
78345;DHT22;67620;51.134;6.548;2024-01-11T10:08:47;-3.90;82.20
78345;DHT22;67620;51.134;6.548;2024-01-11T10:11:12;-3.90;81.80
78345;DHT22;67620;51.134;6.548;2024-01-11T10:13:38;-3.70;81.20
78345;DHT22;67620;51.134;6.548;2024-01-11T10:16:10;-3.70;81.00
78345;DHT22;67620;51.134;6.548;2024-01-11T10:18:38;-3.70;80.30
78345;DHT22;67620;51.134;6.548;2024-01-11T10:21:04;-3.70;79.90
78345;DHT22;67620;51.134;6.548;2024-01-11T10:23:33;-3.70;80.00
78345;DHT22;67620;51.134;6.548;2024-01-11T10:25:59;-3.50;79.80
78345;DHT22;67620;51.134;6.548;2024-01-11T10:28:25;-3.40;79.70
78345;DHT22;67620;51.134;6.548;2024-01-11T10:30:51;-3.40;79.40
78345;DHT22;67620;51.134;6.548;2024-01-11T10:33:19;-3.40;79.60
78345;DHT22;67620;51.134;6.548;2024-01-11T10:35:46;-3.40;79.50
78345;DHT22;67620;51.134;6.548;2024-01-11T10:38:13;-3.40;79.00
78345;DHT22;67620;51.134;6.548;2024-01-11T10:40:39;-3.30;79.40
78345;DHT22;67620;51.134;6.548;2024-01-11T10:43:05;-3.20;78.50
78345;DHT22;67620;51.134;6.548;2024-01-11T10:45:36;-3.30;78.60
78345;DHT22;67620;51.134;6.548;2024-01-11T10:48:07;-3.20;78.80
78345;DHT22;67620;51.134;6.548;2024-01-11T10:50:37;-3.10;78.70
78345;DHT22;67620;51.134;6.548;2024-01-11T10:53:19;-3.00;79.00
78345;DHT22;67620;51.134;6.548;2024-01-11T10:55:49;-3.20;79.50
78345;DHT22;67620;51.134;6.548;2024-01-11T10:58:15;-3.20;79.90
78345;DHT22;67620;51.134;6.548;2024-01-11T11:00:41;-3.10;79.90
78345;DHT22;67620;51.134;6.548;2024-01-11T11:03:06;-3.00;79.60
78345;DHT22;67620;51.134;6.548;2024-01-11T11:05:32;-3.00;79.80
78345;DHT22;67620;51.134;6.548;2024-01-11T11:08:03;-3.00;79.00
78345;DHT22;67620;51.134;6.548;2024-01-11T11:10:30;-3.10;79.60
78345;DHT22;67620;51.134;6.548;2024-01-11T11:12:55;-3.10;79.90
78345;DHT22;67620;51.134;6.548;2024-01-11T11:15:24;-3.00;79.20
78345;DHT22;67620;51.134;6.548;2024-01-11T11:17:52;-3.00;79.40
78345;DHT22;67620;51.134;6.548;2024-01-11T11:20:18;-2.90;78.80
78345;DHT22;67620;51.134;6.548;2024-01-11T11:22:47;-2.90;78.20
78345;DHT22;67620;51.134;6.548;2024-01-11T11:25:25;-3.00;78.10
78345;DHT22;67620;51.134;6.548;2024-01-11T11:27:53;-2.90;78.10
78345;DHT22;67620;51.134;6.548;2024-01-11T11:30:18;-2.90;77.60
78345;DHT22;67620;51.134;6.548;2024-01-11T11:32:45;-3.00;77.80
78345;DHT22;67620;51.134;6.548;2024-01-11T11:35:10;-2.90;77.30
78345;DHT22;67620;51.134;6.548;2024-01-11T11:37:36;-2.90;77.30
78345;DHT22;67620;51.134;6.548;2024-01-11T11:40:03;-3.00;77.70
78345;DHT22;67620;51.134;6.548;2024-01-11T11:42:30;-2.90;77.50
78345;DHT22;67620;51.134;6.548;2024-01-11T11:44:55;-2.90;77.40
78345;DHT22;67620;51.134;6.548;2024-01-11T11:47:23;-2.80;77.20
78345;DHT22;67620;51.134;6.548;2024-01-11T11:49:58;-2.80;77.50
78345;DHT22;67620;51.134;6.548;2024-01-11T11:52:28;-2.70;77.80
78345;DHT22;67620;51.134;6.548;2024-01-11T11:54:54;-2.70;77.50
78345;DHT22;67620;51.134;6.548;2024-01-11T11:57:21;-2.70;76.30
78345;DHT22;67620;51.134;6.548;2024-01-11T11:59:47;-2.60;76.30
78345;DHT22;67620;51.134;6.548;2024-01-11T12:02:14;-2.70;76.70
78345;DHT22;67620;51.134;6.548;2024-01-11T12:04:46;-2.60;75.90
78345;DHT22;67620;51.134;6.548;2024-01-11T12:07:11;-2.60;75.80
78345;DHT22;67620;51.134;6.548;2024-01-11T12:09:36;-2.50;75.40
78345;DHT22;67620;51.134;6.548;2024-01-11T12:12:02;-2.50;75.00
78345;DHT22;67620;51.134;6.548;2024-01-11T12:14:28;-2.40;74.90
78345;DHT22;67620;51.134;6.548;2024-01-11T12:16:57;-2.50;75.00
78345;DHT22;67620;51.134;6.548;2024-01-11T12:19:23;-2.50;75.20
78345;DHT22;67620;51.134;6.548;2024-01-11T12:21:49;-2.50;75.60
78345;DHT22;67620;51.134;6.548;2024-01-11T12:24:15;-2.40;73.60
78345;DHT22;67620;51.134;6.548;2024-01-11T12:26:41;-2.40;74.00
78345;DHT22;67620;51.134;6.548;2024-01-11T12:29:06;-2.40;73.30
78345;DHT22;67620;51.134;6.548;2024-01-11T12:31:32;-2.40;73.30
78345;DHT22;67620;51.134;6.548;2024-01-11T12:33:57;-2.40;72.70
78345;DHT22;67620;51.134;6.548;2024-01-11T12:36:23;-2.40;73.20
78345;DHT22;67620;51.134;6.548;2024-01-11T12:38:48;-2.30;72.20
78345;DHT22;67620;51.134;6.548;2024-01-11T12:41:14;-2.20;72.10
78345;DHT22;67620;51.134;6.548;2024-01-11T12:43:40;-2.20;71.20
78345;DHT22;67620;51.134;6.548;2024-01-11T12:46:05;-2.20;71.60
78345;DHT22;67620;51.134;6.548;2024-01-11T12:48:31;-2.10;71.70
78345;DHT22;67620;51.134;6.548;2024-01-11T12:50:56;-2.10;71.50
78345;DHT22;67620;51.134;6.548;2024-01-11T12:53:21;-2.00;71.90
78345;DHT22;67620;51.134;6.548;2024-01-11T12:55:49;-2.10;71.10
78345;DHT22;67620;51.134;6.548;2024-01-11T12:58:26;-1.90;69.80
78345;DHT22;67620;51.134;6.548;2024-01-11T13:00:52;-1.80;71.70
78345;DHT22;67620;51.134;6.548;2024-01-11T13:03:18;-1.80;72.40
78345;DHT22;67620;51.134;6.548;2024-01-11T13:05:45;-1.90;72.60
78345;DHT22;67620;51.134;6.548;2024-01-11T13:08:10;-1.70;71.00
78345;DHT22;67620;51.134;6.548;2024-01-11T13:10:36;-1.70;70.80
78345;DHT22;67620;51.134;6.548;2024-01-11T13:13:02;-1.80;71.30
78345;DHT22;67620;51.134;6.548;2024-01-11T13:15:27;-1.90;71.60
78345;DHT22;67620;51.134;6.548;2024-01-11T13:17:55;-1.70;71.10
78345;DHT22;67620;51.134;6.548;2024-01-11T13:20:21;-1.90;72.00
78345;DHT22;67620;51.134;6.548;2024-01-11T13:22:46;-1.80;71.60
78345;DHT22;67620;51.134;6.548;2024-01-11T13:25:12;-1.90;71.70
78345;DHT22;67620;51.134;6.548;2024-01-11T13:27:37;-2.00;72.30
78345;DHT22;67620;51.134;6.548;2024-01-11T13:30:03;-2.10;73.20
78345;DHT22;67620;51.134;6.548;2024-01-11T13:32:28;-2.00;72.90
78345;DHT22;67620;51.134;6.548;2024-01-11T13:34:54;-1.90;72.50
78345;DHT22;67620;51.134;6.548;2024-01-11T13:37:20;-1.90;72.70
78345;DHT22;67620;51.134;6.548;2024-01-11T13:39:45;-2.00;73.40
78345;DHT22;67620;51.134;6.548;2024-01-11T13:42:10;-2.10;73.70
78345;DHT22;67620;51.134;6.548;2024-01-11T13:44:36;-1.90;73.30
78345;DHT22;67620;51.134;6.548;2024-01-11T13:47:02;-2.00;73.60
78345;DHT22;67620;51.134;6.548;2024-01-11T13:49:27;-1.90;73.30
78345;DHT22;67620;51.134;6.548;2024-01-11T13:51:53;-1.90;72.00
78345;DHT22;67620;51.134;6.548;2024-01-11T13:54:18;-1.90;72.30
78345;DHT22;67620;51.134;6.548;2024-01-11T13:56:43;-1.90;72.20
78345;DHT22;67620;51.134;6.548;2024-01-11T13:59:09;-1.90;71.80
78345;DHT22;67620;51.134;6.548;2024-01-11T14:01:35;-1.80;72.10
78345;DHT22;67620;51.134;6.548;2024-01-11T14:04:00;-1.80;71.90
78345;DHT22;67620;51.134;6.548;2024-01-11T14:06:26;-2.00;72.20
78345;DHT22;67620;51.134;6.548;2024-01-11T14:08:51;-2.00;71.50
78345;DHT22;67620;51.134;6.548;2024-01-11T14:11:17;-2.00;71.90
78345;DHT22;67620;51.134;6.548;2024-01-11T14:13:42;-1.90;70.90
78345;DHT22;67620;51.134;6.548;2024-01-11T14:16:08;-1.80;70.60
78345;DHT22;67620;51.134;6.548;2024-01-11T14:18:33;-1.90;71.10
78345;DHT22;67620;51.134;6.548;2024-01-11T14:20:58;-2.00;71.50
78345;DHT22;67620;51.134;6.548;2024-01-11T14:23:24;-2.00;72.40
78345;DHT22;67620;51.134;6.548;2024-01-11T14:25:49;-2.00;72.80
78345;DHT22;67620;51.134;6.548;2024-01-11T14:28:15;-2.10;72.70
78345;DHT22;67620;51.134;6.548;2024-01-11T14:30:41;-2.00;72.80
78345;DHT22;67620;51.134;6.548;2024-01-11T14:33:06;-2.10;73.20
78345;DHT22;67620;51.134;6.548;2024-01-11T14:35:31;-2.00;73.10
78345;DHT22;67620;51.134;6.548;2024-01-11T14:37:57;-2.10;73.30
78345;DHT22;67620;51.134;6.548;2024-01-11T14:40:22;-2.10;73.20
78345;DHT22;67620;51.134;6.548;2024-01-11T14:42:49;-2.20;73.90
78345;DHT22;67620;51.134;6.548;2024-01-11T14:45:14;-2.30;73.70
78345;DHT22;67620;51.134;6.548;2024-01-11T14:47:40;-2.30;73.10
78345;DHT22;67620;51.134;6.548;2024-01-11T14:50:05;-2.30;73.00
78345;DHT22;67620;51.134;6.548;2024-01-11T14:52:34;-2.40;73.90
78345;DHT22;67620;51.134;6.548;2024-01-11T14:55:00;-2.50;74.60
78345;DHT22;67620;51.134;6.548;2024-01-11T14:57:25;-2.40;74.00
78345;DHT22;67620;51.134;6.548;2024-01-11T14:59:51;-2.30;73.40
78345;DHT22;67620;51.134;6.548;2024-01-11T15:02:16;-2.30;73.40
78345;DHT22;67620;51.134;6.548;2024-01-11T15:04:42;-2.40;73.90
78345;DHT22;67620;51.134;6.548;2024-01-11T15:07:07;-2.30;72.70
78345;DHT22;67620;51.134;6.548;2024-01-11T15:09:36;-2.40;72.70
78345;DHT22;67620;51.134;6.548;2024-01-11T15:12:02;-2.40;72.70
78345;DHT22;67620;51.134;6.548;2024-01-11T15:14:27;-2.50;73.90
78345;DHT22;67620;51.134;6.548;2024-01-11T15:16:53;-2.70;74.80
78345;DHT22;67620;51.134;6.548;2024-01-11T15:19:18;-2.60;74.20
78345;DHT22;67620;51.134;6.548;2024-01-11T15:21:44;-2.70;75.10